createdAt,value
2019-04-25T00:00:42.205Z,99500.63
2019-04-25T00:03:12.277Z,99508.73
2019-04-25T00:05:39.620Z,99504.63
2019-04-25T00:08:06.811Z,99502.79
2019-04-25T00:10:35.170Z,99501.01
2019-04-25T00:13:04.514Z,99498.39
2019-04-25T00:15:32.002Z,99499.83
2019-04-25T00:17:59.053Z,99509.08
2019-04-25T00:20:28.435Z,99515.80
2019-04-25T00:23:05.785Z,99517.98
2019-04-25T00:25:51.317Z,99518.07
2019-04-25T00:28:18.646Z,99514.39
2019-04-25T00:30:46.083Z,99514.37
2019-04-25T00:33:13.269Z,99502.45
2019-04-25T00:35:42.521Z,99507.91
2019-04-25T00:38:09.330Z,99511.90
2019-04-25T00:40:36.437Z,99509.66
2019-04-25T00:43:06.028Z,99509.25
2019-04-25T00:45:34.859Z,99512.16
2019-04-25T00:48:04.289Z,99516.20
2019-04-25T00:50:34.429Z,99523.80
2019-04-25T00:53:01.474Z,99522.11
2019-04-25T00:55:31.481Z,99521.84
2019-04-25T00:58:11.491Z,99527.19
2019-04-25T01:01:04.244Z,99523.45
2019-04-25T01:03:32.422Z,99530.31
2019-04-25T01:05:59.512Z,99518.98
2019-04-25T01:08:26.615Z,99527.64
2019-04-25T01:10:54.280Z,99526.63
2019-04-25T01:13:24.140Z,99523.18
2019-04-25T01:15:52.855Z,99536.09
2019-04-25T01:18:25.192Z,99541.54
2019-04-25T01:20:53.591Z,99537.22
2019-04-25T01:23:21.663Z,99534.95
2019-04-25T01:25:49.479Z,99542.25
2019-04-25T01:28:16.565Z,99549.63
2019-04-25T01:30:43.916Z,99540.77
2019-04-25T01:33:13.467Z,99539.72
2019-04-25T01:35:55.772Z,99542.80
2019-04-25T01:38:38.326Z,99542.08
2019-04-25T01:41:24.190Z,99539.30
2019-04-25T01:44:04.545Z,99535.97
2019-04-25T01:46:31.943Z,99542.25
2019-04-25T01:48:59.263Z,99548.91
2019-04-25T01:51:26.352Z,99550.02
2019-04-25T01:53:54.830Z,99562.03
2019-04-25T01:56:23.032Z,99557.67
2019-04-25T01:58:51.610Z,99562.95
2019-04-25T02:01:18.643Z,99562.39
2019-04-25T02:03:45.670Z,99563.07
2019-04-25T02:06:13.635Z,99563.42
2019-04-25T02:08:41.279Z,99564.71
2019-04-25T02:11:19.901Z,99558.09
2019-04-25T02:13:46.941Z,99558.55
2019-04-25T02:16:16.435Z,99557.63
2019-04-25T02:18:43.630Z,99557.45
2019-04-25T02:21:10.902Z,99553.56
2019-04-25T02:23:37.941Z,99563.52
2019-04-25T02:26:15.284Z,99566.86
2019-04-25T02:28:34.312Z,99564.06
2019-04-25T02:31:03.786Z,99565.66
2019-04-25T02:33:30.315Z,99570.44
2019-04-25T02:35:59.440Z,99574.23
2019-04-25T02:38:26.511Z,99575.50
2019-04-25T02:40:56.297Z,99573.02
2019-04-25T02:43:23.987Z,99579.10
2019-04-25T02:46:19.738Z,99586.69
2019-04-25T02:49:28.971Z,99591.74
2019-04-25T02:51:49.725Z,99589.00
2019-04-25T02:54:16.840Z,99580.20
2019-04-25T02:56:46.428Z,99591.19
2019-04-25T02:59:14.925Z,99586.75
2019-04-25T03:01:44.346Z,99581.87
2019-04-25T03:04:11.550Z,99585.95
2019-04-25T03:06:38.889Z,99586.22
2019-04-25T03:09:09.741Z,99592.38
2019-04-25T03:11:36.809Z,99589.25
2019-04-25T03:14:06.996Z,99589.80
2019-04-25T03:16:34.735Z,99587.59
2019-04-25T03:19:14.693Z,99590.09
2019-04-25T03:21:45.222Z,99592.11
2019-04-25T03:24:16.350Z,99591.19
2019-04-25T03:26:44.331Z,99599.22
2019-04-25T03:29:13.644Z,99600.05
2019-04-25T03:31:45.005Z,99594.80
2019-04-25T03:34:19.120Z,99595.44
2019-04-25T03:36:44.457Z,99599.13
2019-04-25T03:39:11.481Z,99605.77
2019-04-25T03:41:38.552Z,99607.08
2019-04-25T03:44:06.471Z,99609.25
2019-04-25T03:46:33.673Z,99613.05
2019-04-25T03:49:01.223Z,99612.48
2019-04-25T03:51:29.041Z,99621.83
2019-04-25T03:53:56.084Z,99616.19
2019-04-25T03:56:24.508Z,99618.87
2019-04-25T03:58:53.957Z,99619.00
2019-04-25T04:01:21.044Z,99618.80
2019-04-25T04:03:48.420Z,99628.56
2019-04-25T04:06:15.712Z,99640.32
2019-04-25T04:08:44.458Z,99641.28
2019-04-25T04:11:12.127Z,99647.81
2019-04-25T04:13:45.255Z,99651.18
2019-04-25T04:16:15.373Z,99646.86
2019-04-25T04:18:44.460Z,99656.23
2019-04-25T04:21:26.910Z,99651.55
2019-04-25T04:24:19.478Z,99648.64
2019-04-25T04:27:06.728Z,99651.67
2019-04-25T04:29:36.295Z,99652.24
2019-04-25T04:32:03.563Z,99650.36
2019-04-25T04:34:30.928Z,99653.12
2019-04-25T04:36:57.979Z,99654.84
2019-04-25T04:39:25.021Z,99646.38
2019-04-25T04:41:53.507Z,99652.13
2019-04-25T04:44:23.999Z,99655.16
2019-04-25T04:46:53.855Z,99660.87
2019-04-25T04:49:21.163Z,99667.78
2019-04-25T04:51:48.213Z,99665.73
2019-04-25T04:54:15.520Z,99663.70
2019-04-25T04:56:43.842Z,99662.79
2019-04-25T04:59:12.864Z,99663.97
2019-04-25T05:02:01.111Z,99669.44
2019-04-25T05:04:40.004Z,99669.48
2019-04-25T05:07:29.727Z,99665.02
2019-04-25T05:09:56.765Z,99666.53
2019-04-25T05:12:24.132Z,99668.25
2019-04-25T05:14:51.301Z,99674.80
2019-04-25T05:17:20.420Z,99673.42
2019-04-25T05:19:47.440Z,99674.30
2019-04-25T05:22:16.886Z,99660.42
2019-04-25T05:24:46.732Z,99675.20
2019-04-25T05:27:16.660Z,99690.77
2019-04-25T05:29:46.288Z,99683.28
2019-04-25T05:32:17.297Z,99680.28
2019-04-25T05:34:46.133Z,99674.34
2019-04-25T05:37:15.160Z,99670.55
2019-04-25T05:39:44.099Z,99672.25
2019-04-25T05:42:28.993Z,99652.45
2019-04-25T05:44:58.395Z,99642.97
2019-04-25T05:47:27.185Z,99618.03
2019-04-25T05:49:54.385Z,99630.25
2019-04-25T05:52:22.001Z,99624.77
2019-04-25T05:54:49.665Z,99612.91
2019-04-25T05:57:16.757Z,99596.77
2019-04-25T05:59:43.889Z,99590.70
2019-04-25T06:02:10.968Z,99596.02
2019-04-25T06:04:38.131Z,99608.43
2019-04-25T06:07:05.729Z,99610.91
2019-04-25T06:09:54.254Z,99611.84
2019-04-25T06:12:33.541Z,99615.96
2019-04-25T06:15:03.466Z,99625.60
2019-04-25T06:17:39.180Z,99641.63
2019-04-25T06:20:08.013Z,99643.70
2019-04-25T06:22:58.325Z,99654.16
2019-04-25T06:25:32.315Z,99662.83
2019-04-25T06:27:59.215Z,99668.70
2019-04-25T06:30:29.607Z,99687.47
2019-04-25T06:32:57.674Z,99680.41
2019-04-25T06:35:26.087Z,99672.84
2019-04-25T06:37:53.755Z,99678.23
2019-04-25T06:40:25.098Z,99682.28
2019-04-25T06:42:53.636Z,99692.91
2019-04-25T06:45:50.091Z,99693.70
2019-04-25T06:48:28.966Z,99701.35
2019-04-25T06:50:56.458Z,99705.69
2019-04-25T06:53:26.057Z,99700.05
2019-04-25T06:55:57.449Z,99694.59
2019-04-25T06:58:27.326Z,99684.21
2019-04-25T07:00:58.779Z,99671.92
2019-04-25T07:03:25.150Z,99674.19
2019-04-25T07:05:54.829Z,99681.28
2019-04-25T07:08:23.743Z,99688.14
2019-04-25T07:10:50.801Z,99694.34
2019-04-25T07:13:17.857Z,99696.81
2019-04-25T07:15:44.936Z,99698.56
2019-04-25T07:18:13.867Z,99693.25
2019-04-25T07:20:40.945Z,99692.88
2019-04-25T07:23:08.012Z,99696.70
2019-04-25T07:25:38.711Z,99700.20
2019-04-25T07:28:44.064Z,99708.64
2019-04-25T07:31:35.843Z,99698.30
2019-04-25T07:34:09.896Z,99696.36
2019-04-25T07:36:38.467Z,99693.17
2019-04-25T07:39:10.667Z,99688.93
2019-04-25T07:41:38.510Z,99682.98
2019-04-25T07:44:09.958Z,99675.33
2019-04-25T07:46:40.004Z,99673.11
2019-04-25T07:49:09.841Z,99673.30
2019-04-25T07:51:36.848Z,99680.56
2019-04-25T07:54:04.543Z,99682.29
2019-04-25T07:56:34.294Z,99685.84
2019-04-25T07:59:01.583Z,99678.19
2019-04-25T08:01:37.504Z,99679.98
2019-04-25T08:04:04.433Z,99673.75
2019-04-25T08:06:33.388Z,99668.84
2019-04-25T08:09:04.052Z,99677.30
2019-04-25T08:11:34.175Z,99670.09
2019-04-25T08:14:08.266Z,99670.27
2019-04-25T08:16:37.319Z,99673.19
2019-04-25T08:19:04.483Z,99671.48
2019-04-25T08:21:34.412Z,99666.17
2019-04-25T08:24:04.656Z,99669.91
2019-04-25T08:26:34.966Z,99666.36
2019-04-25T08:29:01.511Z,99667.38
2019-04-25T08:31:28.576Z,99667.09
2019-04-25T08:33:55.613Z,99667.88
2019-04-25T08:36:23.416Z,99659.48
2019-04-25T08:38:50.539Z,99655.31
2019-04-25T08:41:17.591Z,99652.70
2019-04-25T08:43:45.450Z,99657.34
2019-04-25T08:46:20.606Z,99658.97
2019-04-25T08:49:10.210Z,99656.98
2019-04-25T08:51:38.507Z,99650.95
2019-04-25T08:54:15.182Z,99650.41
2019-04-25T08:56:43.941Z,99652.28
2019-04-25T08:59:32.710Z,99643.66
2019-04-25T09:02:14.596Z,99637.73
2019-04-25T09:05:06.105Z,99631.72
2019-04-25T09:07:36.427Z,99631.29
2019-04-25T09:10:06.499Z,99636.44
2019-04-25T09:12:35.598Z,99636.72
2019-04-25T09:15:04.196Z,99628.52
2019-04-25T09:17:35.601Z,99628.70
2019-04-25T09:20:04.022Z,99625.34
2019-04-25T09:22:31.429Z,99616.94
2019-04-25T09:24:59.103Z,99613.95
2019-04-25T09:27:26.910Z,99616.09
2019-04-25T09:29:56.101Z,99617.99
2019-04-25T09:32:23.851Z,99608.59
2019-04-25T09:34:51.222Z,99612.86
2019-04-25T09:37:18.398Z,99612.58
2019-04-25T09:40:08.761Z,99610.39
2019-04-25T09:42:36.938Z,99595.36
2019-04-25T09:45:26.140Z,99592.52
2019-04-25T09:47:53.507Z,99589.27
2019-04-25T09:50:33.960Z,99583.34
2019-04-25T09:53:01.292Z,99575.82
2019-04-25T09:55:46.953Z,99571.91
2019-04-25T09:58:23.904Z,99572.67
2019-04-25T10:00:55.607Z,99563.36
2019-04-25T10:03:24.035Z,99554.54
2019-04-25T10:05:52.193Z,99549.00
2019-04-25T10:08:20.294Z,99546.89
2019-04-25T10:10:49.640Z,99543.98
2019-04-25T10:13:25.179Z,99539.38
2019-04-25T10:16:09.399Z,99542.27
2019-04-25T10:18:37.055Z,99540.75
2019-04-25T10:21:08.312Z,99537.92
2019-04-25T10:23:36.178Z,99531.94
2019-04-25T10:26:05.275Z,99528.50
2019-04-25T10:28:38.735Z,99525.03
2019-04-25T10:31:06.866Z,99519.57
2019-04-25T10:33:46.956Z,99518.92
2019-04-25T10:36:26.166Z,99511.91
2019-04-25T10:39:07.253Z,99506.81
2019-04-25T10:41:30.688Z,99504.23
2019-04-25T10:43:59.754Z,99495.39
2019-04-25T10:46:27.521Z,99491.42
2019-04-25T10:48:58.282Z,99490.58
2019-04-25T10:51:29.328Z,99478.98
2019-04-25T10:53:58.699Z,99453.19
2019-04-25T10:56:30.591Z,99451.13
2019-04-25T10:58:57.825Z,99443.11
2019-04-25T11:01:28.844Z,99430.32
2019-04-25T11:04:23.229Z,99422.84
2019-04-25T11:06:53.970Z,99422.45
2019-04-25T11:09:26.269Z,99413.25
2019-04-25T11:11:54.835Z,99402.73
2019-04-25T11:14:46.428Z,99381.56
2019-04-25T11:17:16.685Z,99378.19
2019-04-25T11:19:44.520Z,99377.58
2019-04-25T11:22:15.563Z,99388.70
2019-04-25T11:24:46.338Z,99379.00
2019-04-25T11:27:15.817Z,99366.97
2019-04-25T11:29:46.252Z,99368.08
2019-04-25T11:32:14.968Z,99363.95
2019-04-25T11:34:43.157Z,99360.42
2019-04-25T11:37:39.787Z,99358.15
2019-04-25T11:40:23.418Z,99348.17
2019-04-25T11:42:51.451Z,99341.33
2019-04-25T11:45:21.817Z,99351.00
2019-04-25T11:48:11.249Z,99340.86
2019-04-25T11:50:48.495Z,99347.30
2019-04-25T11:53:33.879Z,99353.85
2019-04-25T11:56:15.490Z,99351.28
2019-04-25T11:58:49.005Z,99347.75
2019-04-25T12:01:25.353Z,99338.54
2019-04-25T12:03:56.975Z,99337.18
2019-04-25T12:06:29.378Z,99333.80
2019-04-25T12:08:56.498Z,99328.52
2019-04-25T12:11:27.077Z,99323.73
2019-04-25T12:13:55.373Z,99320.87
2019-04-25T12:16:32.374Z,99318.80
2019-04-25T12:19:34.990Z,99322.41
2019-04-25T12:21:56.741Z,99319.43
2019-04-25T12:24:25.404Z,99314.03
2019-04-25T12:26:55.993Z,99312.50
2019-04-25T12:29:24.438Z,99304.91
2019-04-25T12:31:53.863Z,99309.28
2019-04-25T12:34:21.258Z,99309.09
2019-04-25T12:36:50.242Z,99313.77
2019-04-25T12:39:17.552Z,99307.85
2019-04-25T12:41:46.894Z,99292.46
2019-04-25T12:44:31.849Z,99293.51
2019-04-25T12:47:03.275Z,99292.45
2019-04-25T12:49:30.776Z,99282.89
2019-04-25T12:51:58.735Z,99288.43
2019-04-25T12:54:25.784Z,99286.01
2019-04-25T12:56:53.720Z,99276.50
2019-04-25T12:59:22.043Z,99268.41
2019-04-25T13:01:49.514Z,99275.15
2019-04-25T13:04:34.952Z,99261.34
2019-04-25T13:07:04.053Z,99276.24
2019-04-25T13:09:31.224Z,99267.16
2019-04-25T13:12:00.081Z,99261.72
2019-04-25T13:14:27.151Z,99245.31
2019-04-25T13:16:55.557Z,99246.15
2019-04-25T13:19:26.418Z,99245.28
2019-04-25T13:21:54.406Z,99253.57
2019-04-25T13:24:24.410Z,99238.22
2019-04-25T13:26:58.556Z,99247.06
2019-04-25T13:29:58.773Z,99235.96
2019-04-25T13:32:38.579Z,99230.16
2019-04-25T13:35:11.527Z,99233.02
2019-04-25T13:37:47.066Z,99220.73
2019-04-25T13:40:17.523Z,99223.48
2019-04-25T13:42:53.095Z,99213.89
2019-04-25T13:45:26.555Z,99207.63
2019-04-25T13:47:55.495Z,99198.64
2019-04-25T13:50:24.626Z,99194.31
2019-04-25T13:52:51.439Z,99178.54
2019-04-25T13:55:18.544Z,99175.13
2019-04-25T13:57:45.835Z,99169.94
2019-04-25T14:00:14.669Z,99169.25
2019-04-25T14:02:41.919Z,99170.42
2019-04-25T14:05:09.123Z,99166.52
2019-04-25T14:07:37.450Z,99153.77
2019-04-25T14:10:05.751Z,99156.40
2019-04-25T14:12:37.485Z,99165.52
2019-04-25T14:15:07.401Z,99148.06
2019-04-25T14:17:55.302Z,99139.66
2019-04-25T14:20:43.942Z,99139.37
2019-04-25T14:23:13.430Z,99140.81
2019-04-25T14:25:40.532Z,99128.84
2019-04-25T14:28:08.037Z,99135.66
2019-04-25T14:30:36.214Z,99138.34
2019-04-25T14:33:03.792Z,99146.45
2019-04-25T14:35:33.235Z,99139.90
2019-04-25T14:38:00.881Z,99141.91
2019-04-25T14:40:42.275Z,99142.27
2019-04-25T14:43:10.149Z,99137.66
2019-04-25T14:45:44.308Z,99134.44
2019-04-25T14:48:06.159Z,99132.37
2019-04-25T14:50:35.929Z,99124.80
2019-04-25T14:53:03.678Z,99124.70
2019-04-25T14:55:54.258Z,99127.09
2019-04-25T14:58:23.019Z,99118.27
2019-04-25T15:00:52.450Z,99120.38
2019-04-25T15:03:26.613Z,99117.66
2019-04-25T15:05:53.653Z,99100.79
2019-04-25T15:08:20.818Z,99114.47
2019-04-25T15:10:55.542Z,99110.71
2019-04-25T15:13:24.396Z,99104.77
2019-04-25T15:15:51.470Z,99097.75
2019-04-25T15:18:19.863Z,99095.92
2019-04-25T15:20:51.228Z,99100.42
2019-04-25T15:23:23.178Z,99087.22
2019-04-25T15:25:51.339Z,99090.41
2019-04-25T15:28:18.371Z,99087.75
2019-04-25T15:30:46.000Z,99086.45
2019-04-25T15:33:16.678Z,99084.55
2019-04-25T15:35:55.802Z,99081.98
2019-04-25T15:38:41.210Z,99082.80
2019-04-25T15:41:14.817Z,99070.86
2019-04-25T15:43:54.045Z,99063.05
2019-04-25T15:46:28.386Z,99054.88
2019-04-25T15:48:55.561Z,99037.81
2019-04-25T15:51:25.433Z,99048.41
2019-04-25T15:53:53.243Z,99045.27
2019-04-25T15:56:21.733Z,99034.02
2019-04-25T15:58:49.034Z,99040.07
2019-04-25T16:01:16.472Z,99031.37
2019-04-25T16:03:43.631Z,99029.25
2019-04-25T16:06:11.775Z,99027.45
2019-04-25T16:08:40.689Z,99029.23
2019-04-25T16:11:07.851Z,99029.85
2019-04-25T16:13:35.857Z,99024.41
2019-04-25T16:16:03.950Z,99027.14
2019-04-25T16:18:33.158Z,99021.44
2019-04-25T16:21:00.336Z,99030.23
2019-04-25T16:23:27.820Z,99026.48
2019-04-25T16:25:56.091Z,99034.27
2019-04-25T16:28:23.455Z,99035.70
2019-04-25T16:30:55.255Z,99030.89
2019-04-25T16:33:27.087Z,99028.52
2019-04-25T16:35:57.551Z,99026.63
2019-04-25T16:38:27.437Z,99027.74
2019-04-25T16:40:58.249Z,99027.09
2019-04-25T16:43:28.589Z,99026.06
2019-04-25T16:45:56.611Z,99024.00
2019-04-25T16:48:24.185Z,99023.66
2019-04-25T16:50:51.260Z,99027.72
2019-04-25T16:53:18.393Z,99038.20
2019-04-25T16:55:45.645Z,99041.84
2019-04-25T16:58:13.065Z,99031.48
2019-04-25T17:01:05.816Z,99038.05
2019-04-25T17:03:33.530Z,99030.08
2019-04-25T17:06:00.673Z,99024.61
2019-04-25T17:08:27.844Z,99029.30
2019-04-25T17:10:54.926Z,99035.08
2019-04-25T17:13:22.022Z,99037.68
2019-04-25T17:16:08.175Z,99027.23
2019-04-25T17:18:47.986Z,99029.02
2019-04-25T17:21:15.578Z,99021.34
2019-04-25T17:23:43.993Z,99038.61
2019-04-25T17:26:13.975Z,99050.25
2019-04-25T17:28:47.766Z,99073.80
2019-04-25T17:31:30.122Z,99076.41
2019-04-25T17:34:16.598Z,99087.67
2019-04-25T17:36:54.549Z,99106.02
2019-04-25T17:39:30.035Z,99126.03
2019-04-25T17:41:57.169Z,99155.78
2019-04-25T17:44:40.562Z,99140.19
2019-04-25T17:47:09.782Z,99143.20
2019-04-25T17:49:46.846Z,99157.05
2019-04-25T17:52:16.999Z,99153.75
2019-04-25T17:54:45.191Z,99178.59
2019-04-25T17:57:12.310Z,99188.55
2019-04-25T17:59:39.356Z,99176.47
2019-04-25T18:02:08.506Z,99181.95
2019-04-25T18:04:38.315Z,99182.97
2019-04-25T18:07:05.735Z,99194.30
2019-04-25T18:09:35.486Z,99199.25
2019-04-25T18:12:03.843Z,99206.48
2019-04-25T18:14:31.224Z,99214.38
2019-04-25T18:16:58.359Z,99240.27
2019-04-25T18:19:38.625Z,99256.52
2019-04-25T18:22:39.156Z,99266.03
2019-04-25T18:25:36.941Z,99277.33
2019-04-25T18:28:09.328Z,99292.37
2019-04-25T18:30:37.000Z,99306.09
2019-04-25T18:33:17.842Z,99299.99
2019-04-25T18:35:46.088Z,99323.80
2019-04-25T18:38:29.531Z,99334.73
2019-04-25T18:41:06.134Z,99332.95
2019-04-25T18:43:40.119Z,99361.39
2019-04-25T18:46:18.944Z,99366.98
2019-04-25T18:48:47.077Z,99383.02
2019-04-25T18:51:18.786Z,99385.77
2019-04-25T18:54:05.643Z,99400.45
2019-04-25T18:56:56.337Z,99408.63
2019-04-25T18:59:49.812Z,99424.70
2019-04-25T19:02:38.546Z,99431.50
2019-04-25T19:05:23.939Z,99443.91
2019-04-25T19:07:54.407Z,99450.94
2019-04-25T19:10:22.329Z,99473.48
2019-04-25T19:12:50.529Z,99487.56
2019-04-25T19:15:18.165Z,99486.27
2019-04-25T19:17:47.412Z,99482.64
2019-04-25T19:20:18.309Z,99485.61
2019-04-25T19:22:45.846Z,99492.31
2019-04-25T19:25:18.424Z,99499.13
2019-04-25T19:27:46.546Z,99505.22
2019-04-25T19:30:18.758Z,99507.83
2019-04-25T19:32:47.200Z,99521.59
2019-04-25T19:35:16.322Z,99522.28
2019-04-25T19:37:43.889Z,99521.21
2019-04-25T19:40:44.588Z,99532.90
2019-04-25T19:43:36.181Z,99528.70
2019-04-25T19:46:05.333Z,99539.64
2019-04-25T19:48:34.618Z,99534.37
2019-04-25T19:51:02.929Z,99520.32
2019-04-25T19:53:30.164Z,99518.14
2019-04-25T19:56:02.646Z,99519.00
2019-04-25T19:58:29.950Z,99532.80
2019-04-25T20:00:58.567Z,99535.39
2019-04-25T20:03:53.776Z,99538.71
2019-04-25T20:06:39.735Z,99540.73
2019-04-25T20:09:36.808Z,99544.14
2019-04-25T20:12:04.534Z,99549.23
2019-04-25T20:14:35.365Z,99558.11
2019-04-25T20:17:02.575Z,99560.56
2019-04-25T20:19:29.653Z,99563.53
2019-04-25T20:21:56.905Z,99566.41
2019-04-25T20:24:23.999Z,99563.38
2019-04-25T20:26:51.299Z,99564.95
2019-04-25T20:29:18.422Z,99570.95
2019-04-25T20:31:48.656Z,99579.05
2019-04-25T20:34:15.915Z,99579.27
2019-04-25T20:36:43.216Z,99578.22
2019-04-25T20:39:10.291Z,99570.06
2019-04-25T20:41:39.346Z,99585.69
2019-04-25T20:44:08.775Z,99577.08
2019-04-25T20:46:35.868Z,99582.61
2019-04-25T20:49:02.931Z,99588.18
2019-04-25T20:51:30.556Z,99588.70
2019-04-25T20:53:59.675Z,99598.20
2019-04-25T20:56:33.320Z,99611.81
2019-04-25T20:59:02.942Z,99617.19
2019-04-25T21:01:33.753Z,99618.70
2019-04-25T21:04:12.734Z,99626.48
2019-04-25T21:06:34.337Z,99627.22
2019-04-25T21:09:04.378Z,99629.30
2019-04-25T21:11:34.436Z,99631.64
2019-04-25T21:14:19.695Z,99624.66
2019-04-25T21:17:08.440Z,99631.28
2019-04-25T21:19:38.720Z,99639.07
2019-04-25T21:22:05.772Z,99640.56
2019-04-25T21:24:33.184Z,99642.03
2019-04-25T21:27:01.007Z,99649.13
2019-04-25T21:29:28.122Z,99654.67
2019-04-25T21:31:56.735Z,99652.90
2019-04-25T21:34:31.777Z,99642.19
2019-04-25T21:36:59.733Z,99639.69
2019-04-25T21:39:35.491Z,99632.74
2019-04-25T21:42:14.314Z,99633.72
2019-04-25T21:44:41.720Z,99629.34
2019-04-25T21:47:09.210Z,99634.60
2019-04-25T21:49:42.858Z,99639.84
2019-04-25T21:52:10.188Z,99647.88
2019-04-25T21:54:38.666Z,99650.48
2019-04-25T21:57:06.965Z,99638.52
2019-04-25T21:59:34.145Z,99631.69
2019-04-25T22:02:04.887Z,99628.39
2019-04-25T22:04:38.759Z,99628.89
2019-04-25T22:07:03.060Z,99634.18
2019-04-25T22:09:30.558Z,99639.64
2019-04-25T22:11:59.329Z,99650.40
2019-04-25T22:14:27.893Z,99629.31
2019-04-25T22:16:57.664Z,99628.39
2019-04-25T22:19:25.505Z,99635.53
2019-04-25T22:21:57.413Z,99637.91
2019-04-25T22:24:24.896Z,99634.95
2019-04-25T22:26:54.169Z,99637.22
2019-04-25T22:29:24.045Z,99635.08
2019-04-25T22:32:04.520Z,99636.85
2019-04-25T22:34:51.736Z,99645.86
2019-04-25T22:37:09.930Z,99635.44
2019-04-25T22:39:37.565Z,99635.20
2019-04-25T22:42:05.826Z,99638.30
2019-04-25T22:44:33.578Z,99625.66
2019-04-25T22:47:02.231Z,99616.78
2019-04-25T22:49:30.610Z,99606.25
2019-04-25T22:51:57.901Z,99614.17
2019-04-25T22:54:26.760Z,99608.26
2019-04-25T22:56:53.846Z,99595.61
2019-04-25T22:59:22.420Z,99610.60
2019-04-25T23:02:10.199Z,99630.52
2019-04-25T23:05:09.079Z,99640.56
2019-04-25T23:07:29.855Z,99618.58
2019-04-25T23:09:57.444Z,99610.41
2019-04-25T23:12:24.980Z,99617.49
2019-04-25T23:14:52.216Z,99630.97
2019-04-25T23:17:19.410Z,99646.45
2019-04-25T23:19:47.926Z,99656.77
2019-04-25T23:22:15.147Z,99661.25
2019-04-25T23:24:48.686Z,99652.96
2019-04-25T23:27:50.780Z,99655.69
2019-04-25T23:30:20.004Z,99646.91
2019-04-25T23:32:49.118Z,99651.59
2019-04-25T23:35:27.573Z,99644.86
2019-04-25T23:37:46.270Z,99641.57
2019-04-25T23:40:13.759Z,99633.18
2019-04-25T23:42:43.212Z,99621.84
2019-04-25T23:45:10.395Z,99606.28
2019-04-25T23:47:37.790Z,99613.88
2019-04-25T23:50:07.037Z,99635.31
2019-04-25T23:52:34.282Z,99643.11
2019-04-25T23:55:01.334Z,99653.86
2019-04-25T23:57:28.433Z,99677.11
2019-04-25T23:59:55.469Z,99674.25
